Time;durP1;ratioP1;P1;durP2;ratioP2;P2;SDS_P1;SDS_P2;PMS_P1;PMS_P2;Temp;Humidity;BMP_temperature;BMP_pressure;BME280_temperature;BME280_humidity;BME280_pressure;Samples;Min_cycle;Max_cycle;Signal;HPM_P1;HPM_P2
2023/08/15 00:01:55;;;;;;;11.95;4.00;;;18.30;99.90;;;;;;5053007;28;20037;-79
2023/08/15 00:04:21;;;;;;;9.20;4.40;;;18.30;99.90;;;;;;5070342;28;20020;-79
2023/08/15 00:06:47;;;;;;;10.57;4.03;;;18.20;99.90;;;;;;5064472;28;20036;-79
2023/08/15 00:09:12;;;;;;;9.63;4.15;;;18.20;99.90;;;;;;5051905;28;20067;-79
2023/08/15 00:11:38;;;;;;;9.43;4.32;;;18.20;99.90;;;;;;5068608;28;20346;-79
2023/08/15 00:14:04;;;;;;;10.48;4.05;;;18.20;99.90;;;;;;5035506;28;20380;-79
2023/08/15 00:16:30;;;;;;;9.75;4.00;;;18.10;99.90;;;;;;5037073;28;20052;-79
2023/08/15 00:18:55;;;;;;;8.43;3.95;;;18.10;99.90;;;;;;5045615;28;20029;-79
2023/08/15 00:21:21;;;;;;;9.00;3.92;;;18.10;99.90;;;;;;5016369;28;20309;-79
2023/08/15 00:23:47;;;;;;;11.88;4.53;;;18.00;99.90;;;;;;5055258;28;20041;-78
2023/08/15 00:26:13;;;;;;;9.50;4.13;;;18.00;99.90;;;;;;5048751;28;20075;-79
2023/08/15 00:28:40;;;;;;;9.65;4.40;;;18.00;99.90;;;;;;5049669;28;20048;-79
2023/08/15 00:31:05;;;;;;;9.90;4.32;;;18.00;99.90;;;;;;5045720;28;20064;-79
2023/08/15 00:33:31;;;;;;;12.68;4.53;;;18.00;99.90;;;;;;5045067;28;20025;-79
2023/08/15 00:35:57;;;;;;;9.48;4.63;;;17.90;99.90;;;;;;5048881;28;20114;-79
2023/08/15 00:38:23;;;;;;;10.05;4.47;;;17.90;99.90;;;;;;5061973;28;20330;-79
2023/08/15 00:40:48;;;;;;;9.95;4.20;;;17.90;99.90;;;;;;5043394;28;20329;-79
2023/08/15 00:43:17;;;;;;;10.70;4.40;;;17.90;99.90;;;;;;5036162;28;20029;-79
2023/08/15 00:45:43;;;;;;;9.88;4.20;;;17.90;99.90;;;;;;5031203;28;20033;-79
2023/08/15 00:48:10;;;;;;;9.38;4.10;;;17.90;99.90;;;;;;5050662;28;20052;-79
2023/08/15 00:50:37;;;;;;;9.95;4.28;;;17.90;99.90;;;;;;5064159;28;20071;-79
2023/08/15 00:53:04;;;;;;;9.38;4.28;;;17.90;99.90;;;;;;5053518;28;20031;-79
2023/08/15 00:55:31;;;;;;;9.50;4.47;;;17.90;99.90;;;;;;5036169;28;20106;-79
2023/08/15 00:57:57;;;;;;;10.70;4.60;;;17.90;99.90;;;;;;5054218;28;20058;-79
2023/08/15 01:00:23;;;;;;;14.48;4.70;;;17.90;99.90;;;;;;5048964;28;20294;-79
2023/08/15 01:02:49;;;;;;;10.10;4.63;;;17.90;99.90;;;;;;5053387;28;20229;-79
2023/08/15 01:05:16;;;;;;;11.13;4.65;;;17.90;99.90;;;;;;5034961;28;20032;-79
2023/08/15 01:07:43;;;;;;;9.30;4.55;;;17.90;99.90;;;;;;5060977;28;20049;-79
2023/08/15 01:10:09;;;;;;;9.50;4.72;;;17.90;99.90;;;;;;5066106;28;20029;-79
2023/08/15 01:12:47;;;;;;;10.55;4.43;;;18.00;99.90;;;;;;5031467;28;20059;-79
2023/08/15 01:15:18;;;;;;;11.52;4.72;;;18.00;99.90;;;;;;5068983;28;20075;-79
2023/08/15 01:18:10;;;;;;;9.93;4.68;;;18.00;99.90;;;;;;5049813;28;20029;-79
2023/08/15 01:20:37;;;;;;;12.65;5.10;;;18.00;99.90;;;;;;5052639;28;20376;-79
2023/08/15 01:23:08;;;;;;;12.10;5.05;;;18.00;99.90;;;;;;5068822;28;20047;-79
2023/08/15 01:25:41;;;;;;;9.32;4.53;;;18.10;99.90;;;;;;5035806;28;20037;-79
2023/08/15 01:28:15;;;;;;;12.95;5.25;;;18.00;99.90;;;;;;5049591;28;20043;-79
2023/08/15 01:30:49;;;;;;;10.25;5.03;;;18.10;99.90;;;;;;5064844;28;20083;-79
2023/08/15 01:33:38;;;;;;;9.82;4.93;;;18.10;99.90;;;;;;5045467;28;20059;-79
2023/08/15 01:36:12;;;;;;;10.23;4.47;;;18.10;99.90;;;;;;5072302;28;20093;-79
2023/08/15 01:38:55;;;;;;;12.35;4.88;;;18.00;99.90;;;;;;5053132;28;20164;-79
2023/08/15 01:41:24;;;;;;;11.73;5.13;;;18.10;99.90;;;;;;5067257;28;20028;-79
2023/08/15 01:43:51;;;;;;;11.02;4.55;;;18.00;99.90;;;;;;5043772;28;20037;-79
2023/08/15 01:46:18;;;;;;;11.45;4.82;;;18.00;99.90;;;;;;5028064;28;20094;-78
2023/08/15 01:48:44;;;;;;;12.32;5.35;;;18.00;99.90;;;;;;5039164;28;20082;-79
2023/08/15 01:51:10;;;;;;;9.57;4.65;;;18.00;99.90;;;;;;5059466;28;20057;-79
2023/08/15 01:53:37;;;;;;;10.82;5.07;;;17.90;99.90;;;;;;5037669;28;20043;-79
2023/08/15 01:56:03;;;;;;;10.40;4.80;;;17.90;99.90;;;;;;5042622;28;20055;-78
2023/08/15 01:58:29;;;;;;;11.93;5.38;;;17.80;99.90;;;;;;5058765;28;20036;-79
2023/08/15 02:00:55;;;;;;;11.95;5.50;;;17.80;99.90;;;;;;5050711;28;20304;-79
2023/08/15 02:03:21;;;;;;;11.30;5.65;;;17.80;99.90;;;;;;5041029;28;20034;-79
2023/08/15 02:05:46;;;;;;;11.75;5.35;;;17.90;99.90;;;;;;5040014;28;20086;-79
2023/08/15 02:08:12;;;;;;;10.38;5.43;;;17.90;99.90;;;;;;5059957;28;20033;-79
2023/08/15 02:10:38;;;;;;;14.52;6.35;;;17.80;99.90;;;;;;5038292;28;20096;-78
2023/08/15 02:13:03;;;;;;;12.30;5.40;;;17.90;99.90;;;;;;5059784;28;20116;-79
2023/08/15 02:15:29;;;;;;;12.13;5.65;;;17.90;99.90;;;;;;5038761;28;20040;-79
2023/08/15 02:17:55;;;;;;;12.35;5.90;;;18.00;99.90;;;;;;5043159;28;20033;-79
2023/08/15 02:20:21;;;;;;;12.18;5.80;;;18.00;99.90;;;;;;5040571;28;20039;-79
2023/08/15 02:22:46;;;;;;;11.95;5.82;;;18.00;99.90;;;;;;5041794;28;20059;-79
2023/08/15 02:25:12;;;;;;;12.73;5.80;;;18.00;99.90;;;;;;5036012;28;20037;-79
2023/08/15 02:27:38;;;;;;;14.20;5.30;;;18.10;99.90;;;;;;5011740;28;20068;-78
2023/08/15 02:30:05;;;;;;;14.90;5.75;;;18.10;99.90;;;;;;5039328;28;20262;-79
2023/08/15 02:32:31;;;;;;;11.13;5.38;;;18.10;99.90;;;;;;5024019;28;20055;-79
2023/08/15 02:34:57;;;;;;;12.07;5.82;;;18.10;99.90;;;;;;5038345;28;20043;-79
2023/08/15 02:37:23;;;;;;;12.63;5.80;;;18.10;99.90;;;;;;5043830;28;20159;-79
2023/08/15 02:39:48;;;;;;;13.10;6.10;;;18.10;99.90;;;;;;5024185;28;20051;-79
2023/08/15 02:42:14;;;;;;;13.00;6.28;;;18.10;99.90;;;;;;5057702;28;20025;-79
2023/08/15 02:44:42;;;;;;;13.80;5.97;;;18.10;99.90;;;;;;5042920;28;20032;-78
2023/08/15 02:47:08;;;;;;;13.88;5.82;;;18.10;99.90;;;;;;5042797;28;20060;-79
2023/08/15 02:49:33;;;;;;;14.40;5.40;;;18.10;99.90;;;;;;5060493;28;20053;-79
2023/08/15 02:51:59;;;;;;;12.30;5.72;;;18.20;99.90;;;;;;5040953;28;20035;-78
2023/08/15 02:54:25;;;;;;;12.07;5.63;;;18.10;99.90;;;;;;5026864;28;20067;-78
2023/08/15 02:56:50;;;;;;;15.93;5.80;;;18.20;99.90;;;;;;5026946;28;20025;-78
2023/08/15 02:59:16;;;;;;;14.13;5.93;;;18.20;99.90;;;;;;5058301;28;20286;-78
2023/08/15 03:01:42;;;;;;;14.48;5.75;;;18.20;99.90;;;;;;5010324;28;20087;-78
2023/08/15 03:04:09;;;;;;;12.45;5.80;;;18.20;99.90;;;;;;5034238;28;20040;-78
2023/08/15 03:06:35;;;;;;;11.73;5.32;;;18.20;99.90;;;;;;5040732;28;20033;-78
2023/08/15 03:09:01;;;;;;;11.20;5.40;;;18.20;99.90;;;;;;5024246;28;20150;-78
2023/08/15 03:11:29;;;;;;;12.88;5.60;;;18.20;99.90;;;;;;5033614;28;20178;-78
2023/08/15 03:13:54;;;;;;;12.18;5.55;;;18.20;99.90;;;;;;5043599;28;20037;-79
2023/08/15 03:16:21;;;;;;;10.98;5.47;;;18.20;99.90;;;;;;5043457;28;20086;-79
2023/08/15 03:18:47;;;;;;;12.48;5.93;;;18.20;99.90;;;;;;5053685;28;20041;-79
2023/08/15 03:21:13;;;;;;;13.32;6.03;;;18.20;99.90;;;;;;5059417;28;20128;-79
2023/08/15 03:23:38;;;;;;;11.43;5.45;;;18.20;99.90;;;;;;5056179;28;20042;-79
2023/08/15 03:26:05;;;;;;;13.18;5.72;;;18.20;99.90;;;;;;5049526;28;20044;-78
2023/08/15 03:28:33;;;;;;;12.07;5.75;;;18.20;99.90;;;;;;5045403;28;20289;-78
2023/08/15 03:31:08;;;;;;;12.45;6.00;;;18.20;99.90;;;;;;5057583;28;20063;-78
2023/08/15 03:33:34;;;;;;;13.20;5.75;;;18.20;99.90;;;;;;5062126;28;20213;-78
2023/08/15 03:36:00;;;;;;;13.80;5.75;;;18.20;99.90;;;;;;5033111;28;20228;-80
2023/08/15 03:38:26;;;;;;;11.93;5.63;;;18.20;99.90;;;;;;5054179;28;20170;-79
2023/08/15 03:41:02;;;;;;;14.27;6.47;;;18.30;99.90;;;;;;5043231;28;20044;-79
2023/08/15 03:43:29;;;;;;;14.20;6.40;;;18.30;99.90;;;;;;5022880;28;20120;-79
2023/08/15 03:45:55;;;;;;;12.95;6.10;;;18.30;99.90;;;;;;5035066;28;20052;-79
2023/08/15 03:48:20;;;;;;;14.32;5.80;;;18.30;99.90;;;;;;5023177;28;20033;-79
2023/08/15 03:50:46;;;;;;;12.10;6.20;;;18.30;99.90;;;;;;5041488;28;20227;-79
2023/08/15 03:53:12;;;;;;;12.60;6.03;;;18.30;99.90;;;;;;5035818;28;21697;-79
2023/08/15 03:55:38;;;;;;;13.95;6.38;;;18.30;99.90;;;;;;5037593;28;20435;-79
2023/08/15 03:58:03;;;;;;;11.48;5.68;;;18.30;99.90;;;;;;5025998;28;20053;-79
2023/08/15 04:00:29;;;;;;;13.23;5.72;;;18.30;99.90;;;;;;5041363;28;20289;-79
2023/08/15 04:02:55;;;;;;;14.05;5.97;;;18.30;99.90;;;;;;5042666;28;20029;-79
2023/08/15 04:05:21;;;;;;;10.90;5.40;;;18.30;99.90;;;;;;5057228;28;20100;-79
2023/08/15 04:07:46;;;;;;;11.02;5.72;;;18.30;99.90;;;;;;5042011;28;20187;-79
2023/08/15 04:10:13;;;;;;;14.32;6.00;;;18.30;99.90;;;;;;5047246;28;20044;-79
2023/08/15 04:12:39;;;;;;;14.13;5.93;;;18.30;99.90;;;;;;5067576;28;20298;-79
2023/08/15 04:15:05;;;;;;;11.68;5.85;;;18.30;99.90;;;;;;5036987;28;20084;-79
2023/08/15 04:17:31;;;;;;;12.07;5.78;;;18.30;99.90;;;;;;5037173;28;20185;-79
2023/08/15 04:19:57;;;;;;;11.98;5.85;;;18.30;99.90;;;;;;5041793;28;20518;-79
2023/08/15 04:22:23;;;;;;;13.75;6.30;;;18.30;99.90;;;;;;5014013;28;20055;-79
2023/08/15 04:24:48;;;;;;;12.32;5.90;;;18.30;99.90;;;;;;5016056;28;20107;-79
2023/08/15 04:27:14;;;;;;;14.18;6.80;;;18.30;99.90;;;;;;5031447;28;20279;-79
2023/08/15 04:29:40;;;;;;;14.25;6.80;;;18.40;99.90;;;;;;5050485;28;20127;-79
2023/08/15 04:32:06;;;;;;;14.02;7.18;;;18.40;99.90;;;;;;5051405;28;20029;-79
2023/08/15 04:34:31;;;;;;;11.40;6.30;;;18.40;99.90;;;;;;5025193;28;20048;-79
2023/08/15 04:36:57;;;;;;;13.45;6.32;;;18.40;99.90;;;;;;5031825;28;20081;-79
2023/08/15 04:39:24;;;;;;;15.18;6.85;;;18.40;99.90;;;;;;5038315;28;20067;-75
2023/08/15 04:41:50;;;;;;;14.07;6.72;;;18.40;99.90;;;;;;5059805;28;20054;-75
2023/08/15 04:44:16;;;;;;;12.80;6.68;;;18.40;99.90;;;;;;5038717;28;20063;-75
2023/08/15 04:46:41;;;;;;;12.27;6.82;;;18.40;99.90;;;;;;5035280;28;20298;-75
2023/08/15 04:49:07;;;;;;;13.70;6.80;;;18.40;99.90;;;;;;5054912;28;20037;-75
2023/08/15 04:51:33;;;;;;;14.38;6.57;;;18.40;99.90;;;;;;5014914;28;20122;-75
2023/08/15 04:53:59;;;;;;;14.38;6.47;;;18.40;99.90;;;;;;5037808;28;20229;-75
2023/08/15 04:56:24;;;;;;;13.05;7.00;;;18.40;99.90;;;;;;5006639;28;20115;-75
2023/08/15 04:58:50;;;;;;;13.75;6.60;;;18.30;99.90;;;;;;5037593;28;21458;-75
2023/08/15 05:01:16;;;;;;;18.38;7.60;;;18.40;99.90;;;;;;5035018;28;20036;-75
2023/08/15 05:03:42;;;;;;;12.65;6.38;;;18.40;99.90;;;;;;5050807;28;20068;-75
2023/08/15 05:06:08;;;;;;;13.60;7.03;;;18.40;99.90;;;;;;5025908;28;20037;-74
2023/08/15 05:08:34;;;;;;;13.50;6.85;;;18.40;99.90;;;;;;5045587;28;20056;-75
2023/08/15 05:11:03;;;;;;;15.90;6.97;;;18.40;99.90;;;;;;5061725;28;20229;-75
2023/08/15 05:13:29;;;;;;;13.55;6.70;;;18.40;99.90;;;;;;5037791;28;20095;-75
2023/08/15 05:15:55;;;;;;;13.45;7.07;;;18.40;99.90;;;;;;5038018;28;20026;-75
2023/08/15 05:18:21;;;;;;;16.42;7.50;;;18.40;99.90;;;;;;5048692;28;20247;-75
2023/08/15 05:20:47;;;;;;;12.95;6.85;;;18.40;99.90;;;;;;5039225;28;20040;-75
2023/08/15 05:23:16;;;;;;;13.48;6.75;;;18.40;99.90;;;;;;5031650;28;20099;-75
2023/08/15 05:25:43;;;;;;;15.70;6.78;;;18.40;99.90;;;;;;5056667;28;20239;-75
2023/08/15 05:28:10;;;;;;;13.10;6.10;;;18.40;99.90;;;;;;5026977;28;20147;-75
2023/08/15 05:30:36;;;;;;;14.95;7.28;;;18.40;99.90;;;;;;5052053;28;20076;-74
2023/08/15 05:33:02;;;;;;;12.93;7.32;;;18.40;99.90;;;;;;5037734;28;20071;-74
2023/08/15 05:35:28;;;;;;;15.07;7.43;;;18.50;99.90;;;;;;5043526;28;20029;-75
2023/08/15 05:37:54;;;;;;;14.52;7.40;;;18.50;99.90;;;;;;5056428;28;20033;-75
2023/08/15 05:40:20;;;;;;;16.15;7.32;;;18.50;99.90;;;;;;5054677;28;20056;-75
2023/08/15 05:42:46;;;;;;;15.90;7.60;;;18.50;99.90;;;;;;5028161;28;20047;-75
2023/08/15 05:45:14;;;;;;;13.73;7.45;;;18.50;99.90;;;;;;5062423;28;20044;-75
2023/08/15 05:47:40;;;;;;;16.52;8.02;;;18.60;99.90;;;;;;5045665;28;20031;-75
2023/08/15 05:50:06;;;;;;;12.02;7.45;;;18.60;99.90;;;;;;5061778;28;20170;-75
2023/08/15 05:52:32;;;;;;;13.55;7.72;;;18.60;99.90;;;;;;5060078;28;20037;-75
2023/08/15 05:54:57;;;;;;;12.68;7.20;;;18.60;99.90;;;;;;5062105;28;20032;-75
2023/08/15 05:57:23;;;;;;;15.43;7.25;;;18.70;99.90;;;;;;5045573;28;20044;-75
2023/08/15 05:59:49;;;;;;;14.35;6.97;;;18.60;99.90;;;;;;5045415;28;20029;-75
2023/08/15 06:02:15;;;;;;;13.70;6.70;;;18.60;99.90;;;;;;5043554;28;20052;-75
2023/08/15 06:04:41;;;;;;;11.55;6.10;;;18.70;99.90;;;;;;5050524;28;20316;-75
2023/08/15 06:07:07;;;;;;;14.40;5.82;;;18.70;99.90;;;;;;5056273;28;20190;-75
2023/08/15 06:09:33;;;;;;;12.05;6.00;;;18.70;99.90;;;;;;5041122;28;20035;-75
2023/08/15 06:11:59;;;;;;;14.13;6.07;;;18.70;99.90;;;;;;5028456;28;20069;-75
2023/08/15 06:14:25;;;;;;;11.40;5.88;;;18.70;99.90;;;;;;5012326;28;20033;-75
2023/08/15 06:16:50;;;;;;;13.95;6.55;;;18.70;99.90;;;;;;5041831;28;20053;-75
2023/08/15 06:19:18;;;;;;;12.77;6.68;;;18.60;99.90;;;;;;5047182;28;20032;-75
2023/08/15 06:21:44;;;;;;;13.20;5.47;;;18.60;99.90;;;;;;5060752;28;20044;-75
2023/08/15 06:24:10;;;;;;;13.20;5.22;;;18.50;99.90;;;;;;5045211;28;20345;-75
2023/08/15 06:26:37;;;;;;;10.70;5.05;;;18.60;99.90;;;;;;5062018;28;20072;-75
2023/08/15 06:29:04;;;;;;;12.15;5.57;;;18.50;99.90;;;;;;5057245;28;20039;-75
2023/08/15 06:31:31;;;;;;;13.65;5.45;;;18.60;99.90;;;;;;5061381;28;20377;-75
2023/08/15 06:33:57;;;;;;;13.07;5.07;;;18.60;99.90;;;;;;5061930;28;20047;-75
2023/08/15 06:36:22;;;;;;;13.52;5.85;;;18.70;99.90;;;;;;5045213;28;20312;-75
2023/08/15 06:38:51;;;;;;;14.38;5.72;;;18.90;99.90;;;;;;5060162;28;20063;-75
2023/08/15 06:41:17;;;;;;;11.02;5.35;;;19.00;99.90;;;;;;5007490;28;20033;-75
2023/08/15 06:43:46;;;;;;;12.40;4.78;;;19.00;99.90;;;;;;5057126;28;20095;-75
2023/08/15 06:46:13;;;;;;;15.25;5.82;;;19.10;99.90;;;;;;5061294;28;20040;-74
2023/08/15 06:48:39;;;;;;;11.27;4.38;;;19.10;99.90;;;;;;5044493;28;20029;-75
2023/08/15 06:51:05;;;;;;;12.52;4.65;;;19.10;99.90;;;;;;5028159;28;20052;-74
2023/08/15 06:53:31;;;;;;;10.50;4.20;;;19.10;99.90;;;;;;5043572;28;20056;-74
2023/08/15 06:55:57;;;;;;;13.13;4.68;;;19.20;99.90;;;;;;5053405;28;20029;-74
2023/08/15 06:58:23;;;;;;;10.73;4.10;;;19.30;99.90;;;;;;5060955;28;20148;-74
2023/08/15 07:00:49;;;;;;;12.23;4.82;;;19.40;99.90;;;;;;5056294;28;20049;-74
2023/08/15 07:03:15;;;;;;;13.30;4.53;;;19.50;99.90;;;;;;5059159;28;20061;-74
2023/08/15 07:05:42;;;;;;;11.63;4.57;;;19.60;99.90;;;;;;5023832;28;20286;-74
2023/08/15 07:08:08;;;;;;;13.90;5.30;;;19.60;99.90;;;;;;5057584;28;20021;-74
2023/08/15 07:10:36;;;;;;;11.63;4.97;;;19.60;99.90;;;;;;5052359;28;20373;-74
2023/08/15 07:13:02;;;;;;;14.60;5.10;;;19.50;99.90;;;;;;5059706;28;20043;-74
2023/08/15 07:15:28;;;;;;;9.70;4.07;;;19.50;99.90;;;;;;5059751;28;20029;-74
2023/08/15 07:17:54;;;;;;;10.65;4.47;;;19.50;99.90;;;;;;5060808;28;20037;-75
2023/08/15 07:20:20;;;;;;;11.50;4.40;;;19.60;99.90;;;;;;5060480;28;20100;-74
2023/08/15 07:22:47;;;;;;;14.23;4.32;;;19.80;99.90;;;;;;5041436;28;20296;-75
2023/08/15 07:25:13;;;;;;;11.13;4.00;;;20.00;99.90;;;;;;5054257;28;20071;-74
2023/08/15 07:27:39;;;;;;;10.35;4.15;;;20.10;99.90;;;;;;5044046;28;20072;-74
2023/08/15 07:30:06;;;;;;;9.45;4.22;;;20.30;99.90;;;;;;5060463;28;20040;-74
2023/08/15 07:32:38;;;;;;;11.73;4.13;;;20.50;99.90;;;;;;5043043;28;20039;-74
2023/08/15 07:35:05;;;;;;;12.38;4.10;;;20.50;99.90;;;;;;5042822;28;20039;-74
2023/08/15 07:37:31;;;;;;;23.67;4.13;;;20.70;99.90;;;;;;5042777;28;20227;-74
2023/08/15 07:40:09;;;;;;;9.88;3.85;;;20.80;99.90;;;;;;5027431;28;20095;-74
2023/08/15 07:42:35;;;;;;;9.95;4.20;;;20.90;99.90;;;;;;5043767;28;20087;-75
2023/08/15 07:45:02;;;;;;;10.45;3.80;;;21.10;99.90;;;;;;5057374;28;20080;-74
2023/08/15 07:47:29;;;;;;;11.55;3.75;;;21.20;99.90;;;;;;5026620;28;20138;-75
2023/08/15 07:50:17;;;;;;;10.00;3.20;;;21.30;99.90;;;;;;5043710;28;20055;-74
2023/08/15 07:52:43;;;;;;;11.07;3.80;;;21.30;99.90;;;;;;5043777;28;20259;-75
2023/08/15 07:55:10;;;;;;;13.15;3.92;;;21.30;99.90;;;;;;5040740;28;20043;-74
2023/08/15 07:57:36;;;;;;;10.73;3.65;;;21.40;99.90;;;;;;5041297;28;20025;-75
2023/08/15 08:00:03;;;;;;;11.55;2.90;;;21.50;99.90;;;;;;5059391;28;20323;-75
2023/08/15 08:02:29;;;;;;;9.23;2.88;;;21.60;99.90;;;;;;5027237;28;20092;-75
2023/08/15 08:04:55;;;;;;;9.88;2.92;;;21.60;99.90;;;;;;5040647;28;20029;-74
2023/08/15 08:07:21;;;;;;;10.88;2.78;;;21.50;99.90;;;;;;5042951;28;20285;-74
2023/08/15 08:09:46;;;;;;;9.70;2.75;;;21.30;99.90;;;;;;5057682;28;20043;-74
2023/08/15 08:12:12;;;;;;;11.25;3.20;;;21.10;99.90;;;;;;5053898;28;20052;-74
2023/08/15 08:14:38;;;;;;;8.93;2.50;;;21.00;99.90;;;;;;5063149;28;20101;-74
2023/08/15 08:17:04;;;;;;;10.02;2.53;;;21.00;99.90;;;;;;5033042;28;20030;-75
2023/08/15 08:19:30;;;;;;;10.43;2.53;;;21.00;99.90;;;;;;5046461;28;20155;-75
2023/08/15 08:21:56;;;;;;;9.32;2.42;;;21.20;99.90;;;;;;5047234;28;20053;-75
2023/08/15 08:24:21;;;;;;;7.03;2.28;;;21.40;99.90;;;;;;5030678;28;20839;-75
2023/08/15 08:26:47;;;;;;;7.35;2.25;;;21.60;99.90;;;;;;5041271;28;20064;-75
2023/08/15 08:29:13;;;;;;;10.10;2.30;;;21.90;99.90;;;;;;5027256;28;20135;-74
2023/08/15 08:31:39;;;;;;;10.30;2.80;;;22.10;99.90;;;;;;5063859;28;20159;-75
2023/08/15 08:34:13;;;;;;;7.63;2.17;;;22.30;99.90;;;;;;5030309;28;20088;-75
2023/08/15 08:36:40;;;;;;;7.05;2.15;;;22.40;99.90;;;;;;5063692;28;20097;-75
2023/08/15 08:39:07;;;;;;;9.38;2.58;;;22.60;99.90;;;;;;5038223;28;20044;-75
2023/08/15 08:41:37;;;;;;;8.48;2.30;;;22.70;99.90;;;;;;5063752;28;20039;-75
2023/08/15 08:44:03;;;;;;;9.52;2.45;;;22.80;99.90;;;;;;5063512;28;20084;-75
2023/08/15 08:46:30;;;;;;;8.35;1.92;;;22.90;99.90;;;;;;5040669;28;20064;-75
2023/08/15 08:48:57;;;;;;;7.88;2.10;;;23.00;99.90;;;;;;5063561;28;20033;-75
2023/08/15 08:51:24;;;;;;;8.52;2.08;;;23.10;99.90;;;;;;5047136;28;20124;-75
2023/08/15 08:53:50;;;;;;;11.35;2.40;;;23.10;99.90;;;;;;5063407;28;20032;-75
2023/08/15 08:56:22;;;;;;;7.82;2.08;;;23.20;99.90;;;;;;5060582;28;20412;-75
2023/08/15 08:59:01;;;;;;;6.93;1.90;;;23.10;99.90;;;;;;5062241;28;20040;-75
2023/08/15 09:01:31;;;;;;;10.05;2.22;;;23.20;99.90;;;;;;5046865;28;20037;-75
2023/08/15 09:03:57;;;;;;;7.68;2.10;;;23.20;99.90;;;;;;5063216;28;20021;-75
2023/08/15 09:06:26;;;;;;;9.57;2.50;;;23.30;99.90;;;;;;5046549;28;20171;-75
2023/08/15 09:08:52;;;;;;;5.63;1.77;;;23.40;99.90;;;;;;5042239;28;20328;-75
2023/08/15 09:11:18;;;;;;;8.30;2.00;;;23.50;99.90;;;;;;5058825;28;20267;-75
2023/08/15 09:13:47;;;;;;;9.15;2.00;;;23.60;99.90;;;;;;5063074;28;20025;-75
2023/08/15 09:16:13;;;;;;;9.05;2.05;;;23.50;99.90;;;;;;5063018;28;20124;-75
2023/08/15 09:18:38;;;;;;;5.72;1.95;;;23.50;99.90;;;;;;5045394;28;20025;-75
2023/08/15 09:21:05;;;;;;;5.72;1.65;;;23.50;99.90;;;;;;5028156;28;20029;-75
2023/08/15 09:23:31;;;;;;;9.25;1.98;;;23.60;99.90;;;;;;5046077;28;20067;-75
2023/08/15 09:25:57;;;;;;;5.80;1.83;;;23.70;99.90;;;;;;5045439;28;20057;-75
2023/08/15 09:28:23;;;;;;;8.18;2.00;;;23.80;99.90;;;;;;5061925;28;20041;-75
2023/08/15 09:30:53;;;;;;;7.97;1.85;;;23.80;99.90;;;;;;5045089;28;20048;-74
2023/08/15 09:33:19;;;;;;;6.95;1.83;;;23.80;99.90;;;;;;5029653;28;20056;-75
2023/08/15 09:35:45;;;;;;;8.57;2.00;;;23.90;99.90;;;;;;5029710;28;20047;-75
2023/08/15 09:38:11;;;;;;;8.13;1.77;;;23.90;99.90;;;;;;5045742;28;20263;-75
2023/08/15 09:40:37;;;;;;;7.00;1.85;;;24.00;99.90;;;;;;5026018;28;20033;-75
2023/08/15 09:43:04;;;;;;;10.55;2.45;;;24.00;99.90;;;;;;5059757;28;20024;-75
2023/08/15 09:45:30;;;;;;;7.72;1.77;;;24.00;99.90;;;;;;5062586;28;20057;-75
2023/08/15 09:47:56;;;;;;;8.07;1.92;;;23.80;99.90;;;;;;5062426;28;20090;-75
2023/08/15 09:50:23;;;;;;;7.80;1.85;;;23.50;99.90;;;;;;5045521;28;20032;-75
2023/08/15 09:52:49;;;;;;;7.63;2.00;;;23.40;99.90;;;;;;5040766;28;20033;-75
2023/08/15 09:55:15;;;;;;;7.53;1.90;;;23.30;99.90;;;;;;5045309;28;20107;-75
2023/08/15 09:57:42;;;;;;;7.55;1.80;;;23.20;99.90;;;;;;5045664;28;20085;-75
2023/08/15 10:00:16;;;;;;;6.43;1.73;;;23.20;99.90;;;;;;5034535;28;20182;-75
2023/08/15 10:02:48;;;;;;;5.82;1.52;;;23.20;99.90;;;;;;5039783;28;20028;-75
2023/08/15 10:05:18;;;;;;;7.00;1.75;;;23.00;99.90;;;;;;5059295;28;20017;-75
2023/08/15 10:07:45;;;;;;;5.47;1.45;;;22.80;99.90;;;;;;5061943;28;20029;-75
2023/08/15 10:10:13;;;;;;;8.15;1.60;;;22.80;99.90;;;;;;5036963;28;20301;-75
2023/08/15 10:12:40;;;;;;;5.85;1.90;;;22.90;99.90;;;;;;5045579;28;20025;-75
2023/08/15 10:15:10;;;;;;;4.53;1.60;;;22.90;99.90;;;;;;5044683;28;20036;-75
2023/08/15 10:17:38;;;;;;;4.72;1.33;;;22.80;99.90;;;;;;5045524;28;20029;-75
2023/08/15 10:20:10;;;;;;;6.97;1.90;;;23.00;99.90;;;;;;5042388;28;20037;-75
2023/08/15 10:22:39;;;;;;;5.13;1.58;;;23.50;99.90;;;;;;5035208;28;20151;-75
2023/08/15 10:25:22;;;;;;;6.18;1.70;;;23.50;99.90;;;;;;5044180;28;20092;-75
2023/08/15 10:27:50;;;;;;;4.60;1.60;;;23.70;99.90;;;;;;5061735;28;20029;-75
2023/08/15 10:30:33;;;;;;;6.72;1.80;;;23.80;99.90;;;;;;5061819;28;20060;-75
2023/08/15 10:33:01;;;;;;;5.20;1.38;;;23.80;99.90;;;;;;5057630;28;20048;-75
2023/08/15 10:35:27;;;;;;;4.28;1.45;;;23.50;99.90;;;;;;5044239;28;20040;-75
2023/08/15 10:37:56;;;;;;;5.53;1.58;;;23.40;99.90;;;;;;5043850;28;20033;-75
2023/08/15 10:40:37;;;;;;;4.72;1.45;;;23.40;99.90;;;;;;5044756;28;20047;-75
2023/08/15 10:43:07;;;;;;;6.90;1.65;;;23.60;99.90;;;;;;5058308;28;20060;-75
2023/08/15 10:45:37;;;;;;;6.68;1.65;;;23.60;99.90;;;;;;5056470;28;20229;-75
2023/08/15 10:48:03;;;;;;;6.20;1.60;;;23.60;99.90;;;;;;5047639;28;20033;-75
2023/08/15 10:50:29;;;;;;;6.47;1.58;;;23.60;99.90;;;;;;5044669;28;20075;-75
2023/08/15 10:53:05;;;;;;;5.43;1.73;;;23.40;99.90;;;;;;5061441;28;20036;-75
2023/08/15 10:55:37;;;;;;;6.60;1.60;;;23.70;99.90;;;;;;5044259;28;20033;-75
2023/08/15 10:58:08;;;;;;;6.90;1.70;;;23.60;99.90;;;;;;5043870;28;20309;-75
2023/08/15 11:00:36;;;;;;;7.45;1.63;;;23.50;99.90;;;;;;5060971;28;20033;-75
2023/08/15 11:03:02;;;;;;;4.57;1.60;;;23.60;99.90;;;;;;5044651;28;20045;-75
2023/08/15 11:05:28;;;;;;;5.38;1.58;;;23.50;99.90;;;;;;5035796;28;20029;-75
2023/08/15 11:08:10;;;;;;;4.03;1.50;;;23.70;99.90;;;;;;5043127;28;20033;-75
2023/08/15 11:10:36;;;;;;;5.95;1.52;;;23.80;99.90;;;;;;5035090;28;20219;-75
2023/08/15 11:13:02;;;;;;;7.63;1.70;;;23.80;99.90;;;;;;5027880;28;20274;-75
2023/08/15 11:15:31;;;;;;;5.72;1.60;;;23.80;99.90;;;;;;5024696;28;20049;-75
2023/08/15 11:17:57;;;;;;;6.30;1.70;;;23.60;99.90;;;;;;5060368;28;20090;-75
2023/08/15 11:20:28;;;;;;;6.20;1.85;;;23.50;99.90;;;;;;5060943;28;20061;-75
2023/08/15 11:22:57;;;;;;;5.00;1.42;;;23.60;99.90;;;;;;5060597;28;20139;-75
2023/08/15 11:25:24;;;;;;;5.10;1.52;;;23.90;99.90;;;;;;5055438;28;20060;-75
2023/08/15 11:27:52;;;;;;;4.75;1.67;;;24.20;99.90;;;;;;5058654;28;20056;-75
2023/08/15 11:30:19;;;;;;;8.20;1.98;;;24.50;99.90;;;;;;5054607;28;20044;-75
2023/08/15 11:32:45;;;;;;;7.30;1.80;;;24.70;99.90;;;;;;5044246;28;20049;-74
2023/08/15 11:35:12;;;;;;;6.57;1.70;;;24.80;99.90;;;;;;5011510;28;20041;-75
2023/08/15 11:37:40;;;;;;;7.10;1.85;;;24.90;99.90;;;;;;5038604;28;20104;-75
2023/08/15 11:40:06;;;;;;;6.32;1.88;;;24.90;99.90;;;;;;5036045;28;20040;-75
2023/08/15 11:42:33;;;;;;;4.80;1.60;;;25.00;99.90;;;;;;5038232;28;20032;-76
2023/08/15 11:45:21;;;;;;;5.50;1.88;;;24.90;99.90;;;;;;5043509;28;20204;-75
2023/08/15 11:48:01;;;;;;;5.47;1.77;;;24.90;99.90;;;;;;5057169;28;20053;-75
2023/08/15 11:50:31;;;;;;;7.22;2.00;;;24.90;99.90;;;;;;5063053;28;20037;-75
2023/08/15 11:52:57;;;;;;;9.25;1.80;;;24.80;99.90;;;;;;5064868;28;20104;-75
2023/08/15 11:55:23;;;;;;;8.43;1.90;;;24.90;99.90;;;;;;5031737;28;20044;-75
2023/08/15 11:57:50;;;;;;;6.80;2.00;;;25.00;99.90;;;;;;5040686;28;20136;-74
2023/08/15 12:00:19;;;;;;;5.78;1.70;;;25.20;99.90;;;;;;5062923;28;20074;-75
2023/08/15 12:02:47;;;;;;;6.45;1.80;;;25.30;99.90;;;;;;5063827;28;20025;-75
2023/08/15 12:05:16;;;;;;;6.30;1.77;;;25.10;99.90;;;;;;5047780;28;20033;-75
2023/08/15 12:07:42;;;;;;;8.52;2.00;;;25.10;99.90;;;;;;5061940;28;20044;-75
2023/08/15 12:10:10;;;;;;;5.15;1.50;;;24.90;99.90;;;;;;5039908;28;20271;-75
2023/08/15 12:12:44;;;;;;;7.35;1.90;;;24.80;99.90;;;;;;5063513;28;20044;-75
2023/08/15 12:15:11;;;;;;;5.97;1.92;;;24.70;99.90;;;;;;5047558;28;20158;-75
2023/08/15 12:17:38;;;;;;;6.68;2.10;;;24.70;99.90;;;;;;5064296;28;20104;-75
2023/08/15 12:20:07;;;;;;;6.22;2.03;;;24.80;99.90;;;;;;5039063;28;20049;-76
2023/08/15 12:22:33;;;;;;;5.32;1.60;;;24.90;99.90;;;;;;5030028;28;20037;-75
2023/08/15 12:24:59;;;;;;;6.03;1.92;;;24.90;99.90;;;;;;5063951;28;20201;-75
2023/08/15 12:27:25;;;;;;;7.60;2.00;;;24.90;99.90;;;;;;5047529;28;20060;-76
2023/08/15 12:29:51;;;;;;;5.05;1.58;;;25.00;99.90;;;;;;5026614;28;20089;-76
2023/08/15 12:32:18;;;;;;;4.95;1.50;;;25.00;99.90;;;;;;5061772;28;20202;-75
2023/08/15 12:34:43;;;;;;;6.63;1.85;;;24.80;99.90;;;;;;5063926;28;20174;-76
2023/08/15 12:37:09;;;;;;;5.32;1.75;;;24.60;99.90;;;;;;5030714;28;20056;-76
2023/08/15 12:39:35;;;;;;;3.08;1.30;;;24.40;99.90;;;;;;5046123;28;20199;-75
2023/08/15 12:42:02;;;;;;;4.88;1.50;;;24.40;99.90;;;;;;5040878;28;20044;-75